sensor_id;sensor_type;location;lat;lon;timestamp;pressure;altitude;pressure_sealevel;temperature;humidity
52855;BME280;38719;51.418;7.286;2023-01-28T00:02:15;100969.88;;;3.72;66.42
52855;BME280;38719;51.418;7.286;2023-01-28T00:04:43;100969.00;;;3.71;66.32
52855;BME280;38719;51.418;7.286;2023-01-28T00:07:10;100976.88;;;3.85;66.04
52855;BME280;38719;51.418;7.286;2023-01-28T00:09:38;100970.75;;;3.91;65.57
52855;BME280;38719;51.418;7.286;2023-01-28T00:12:06;100974.25;;;4.01;65.02
52855;BME280;38719;51.418;7.286;2023-01-28T00:14:34;100973.34;;;4.11;65.28
52855;BME280;38719;51.418;7.286;2023-01-28T00:17:03;100962.78;;;4.08;65.39
52855;BME280;38719;51.418;7.286;2023-01-28T00:19:31;100964.56;;;3.98;64.71
52855;BME280;38719;51.418;7.286;2023-01-28T00:21:58;100970.75;;;3.97;65.08
52855;BME280;38719;51.418;7.286;2023-01-28T00:24:26;100968.97;;;4.09;64.87
52855;BME280;38719;51.418;7.286;2023-01-28T00:26:53;100963.66;;;4.12;64.44
52855;BME280;38719;51.418;7.286;2023-01-28T00:29:21;100958.44;;;3.88;64.75
52855;BME280;38719;51.418;7.286;2023-01-28T00:31:50;100963.72;;;3.75;65.76
52855;BME280;38719;51.418;7.286;2023-01-28T00:34:18;100961.09;;;3.62;65.52
52855;BME280;38719;51.418;7.286;2023-01-28T00:36:46;100959.34;;;3.69;66.02
52855;BME280;38719;51.418;7.286;2023-01-28T00:39:23;100969.84;;;3.86;65.30
52855;BME280;38719;51.418;7.286;2023-01-28T00:41:51;100968.09;;;3.96;65.12
52855;BME280;38719;51.418;7.286;2023-01-28T00:44:19;100967.22;;;4.00;65.04
52855;BME280;38719;51.418;7.286;2023-01-28T00:46:46;100973.34;;;4.00;64.88
52855;BME280;38719;51.418;7.286;2023-01-28T00:49:15;100967.19;;;4.09;64.38
52855;BME280;38719;51.418;7.286;2023-01-28T00:51:43;100961.91;;;4.04;64.54
52855;BME280;38719;51.418;7.286;2023-01-28T00:54:11;100974.22;;;4.10;63.99
52855;BME280;38719;51.418;7.286;2023-01-28T00:56:39;100971.59;;;3.99;64.64
52855;BME280;38719;51.418;7.286;2023-01-28T00:59:06;100972.47;;;4.08;64.34
52855;BME280;38719;51.418;7.286;2023-01-28T01:01:34;100976.88;;;4.13;64.07
52855;BME280;38719;51.418;7.286;2023-01-28T01:04:01;100977.72;;;4.18;64.56
52855;BME280;38719;51.418;7.286;2023-01-28T01:06:33;100982.09;;;4.26;64.25
52855;BME280;38719;51.418;7.286;2023-01-28T01:09:02;100978.56;;;4.20;64.46
52855;BME280;38719;51.418;7.286;2023-01-28T01:11:33;100975.94;;;4.25;64.85
52855;BME280;38719;51.418;7.286;2023-01-28T01:14:01;100976.81;;;4.27;64.53
52855;BME280;38719;51.418;7.286;2023-01-28T01:16:31;100973.31;;;4.28;64.38
52855;BME280;38719;51.418;7.286;2023-01-28T01:19:01;100968.03;;;4.30;64.57
52855;BME280;38719;51.418;7.286;2023-01-28T01:21:30;100973.28;;;4.33;64.24
52855;BME280;38719;51.418;7.286;2023-01-28T01:23:58;100967.09;;;4.35;64.18
52855;BME280;38719;51.418;7.286;2023-01-28T01:26:25;100972.41;;;4.37;63.76
52855;BME280;38719;51.418;7.286;2023-01-28T01:28:53;100971.50;;;4.41;62.97
52855;BME280;38719;51.418;7.286;2023-01-28T01:31:21;100964.47;;;4.39;64.12
52855;BME280;38719;51.418;7.286;2023-01-28T01:33:50;100968.88;;;4.35;64.36
52855;BME280;38719;51.418;7.286;2023-01-28T01:36:18;100969.75;;;4.34;64.30
52855;BME280;38719;51.418;7.286;2023-01-28T01:38:52;100976.81;;;4.38;64.59
52855;BME280;38719;51.418;7.286;2023-01-28T01:41:26;100972.41;;;4.34;63.75
52855;BME280;38719;51.418;7.286;2023-01-28T01:43:56;100976.81;;;4.29;63.34
52855;BME280;38719;51.418;7.286;2023-01-28T01:46:29;100984.72;;;4.29;64.13
52855;BME280;38719;51.418;7.286;2023-01-28T01:49:05;100983.84;;;4.30;64.04
52855;BME280;38719;51.418;7.286;2023-01-28T01:51:35;100974.16;;;4.35;64.08
52855;BME280;38719;51.418;7.286;2023-01-28T01:54:04;100978.56;;;4.36;64.37
52855;BME280;38719;51.418;7.286;2023-01-28T01:56:35;100988.22;;;4.34;63.67
52855;BME280;38719;51.418;7.286;2023-01-28T01:59:09;100992.66;;;4.19;63.93
52855;BME280;38719;51.418;7.286;2023-01-28T02:01:38;100993.53;;;4.17;63.80
52855;BME280;38719;51.418;7.286;2023-01-28T02:04:09;100986.50;;;4.17;63.69
52855;BME280;38719;51.418;7.286;2023-01-28T02:06:39;100986.47;;;4.25;62.95
52855;BME280;38719;51.418;7.286;2023-01-28T02:09:22;100976.81;;;4.23;63.36
52855;BME280;38719;51.418;7.286;2023-01-28T02:11:51;100983.84;;;4.20;63.50
52855;BME280;38719;51.418;7.286;2023-01-28T02:14:22;100996.16;;;4.25;63.65
52855;BME280;38719;51.418;7.286;2023-01-28T02:16:57;100988.25;;;4.25;63.69
52855;BME280;38719;51.418;7.286;2023-01-28T02:19:26;100997.06;;;4.22;63.15
52855;BME280;38719;51.418;7.286;2023-01-28T02:22:09;100992.66;;;4.19;63.42
52855;BME280;38719;51.418;7.286;2023-01-28T02:25:17;100991.81;;;4.10;62.91
52855;BME280;38719;51.418;7.286;2023-01-28T02:28:17;100987.41;;;4.13;63.11
52855;BME280;38719;51.418;7.286;2023-01-28T02:30:52;100992.66;;;4.15;63.29
52855;BME280;38719;51.418;7.286;2023-01-28T02:33:28;100998.81;;;4.09;62.88
52855;BME280;38719;51.418;7.286;2023-01-28T02:36:00;100992.66;;;4.16;63.49
52855;BME280;38719;51.418;7.286;2023-01-28T02:38:32;101003.22;;;4.19;63.66
52855;BME280;38719;51.418;7.286;2023-01-28T02:41:04;101002.34;;;4.10;63.11
52855;BME280;38719;51.418;7.286;2023-01-28T02:43:38;101006.72;;;4.15;63.11
52855;BME280;38719;51.418;7.286;2023-01-28T02:46:15;101007.59;;;4.08;63.17
52855;BME280;38719;51.418;7.286;2023-01-28T02:49:03;101010.25;;;4.11;62.86
52855;BME280;38719;51.418;7.286;2023-01-28T02:51:46;101009.38;;;4.18;63.09
52855;BME280;38719;51.418;7.286;2023-01-28T02:54:26;101014.63;;;4.14;62.90
52855;BME280;38719;51.418;7.286;2023-01-28T02:57:04;101016.38;;;4.16;62.58
52855;BME280;38719;51.418;7.286;2023-01-28T02:59:41;101012.00;;;4.08;62.01
52855;BME280;38719;51.418;7.286;2023-01-28T03:02:20;101011.13;;;4.04;62.47
52855;BME280;38719;51.418;7.286;2023-01-28T03:04:53;101005.88;;;4.04;63.15
52855;BME280;38719;51.418;7.286;2023-01-28T03:07:26;101016.41;;;4.04;62.56
52855;BME280;38719;51.418;7.286;2023-01-28T03:09:56;101008.50;;;4.07;62.19
52855;BME280;38719;51.418;7.286;2023-01-28T03:12:25;101007.63;;;3.99;62.22
52855;BME280;38719;51.418;7.286;2023-01-28T03:15:15;100999.72;;;3.99;62.75
52855;BME280;38719;51.418;7.286;2023-01-28T03:18:01;100996.22;;;4.00;62.82
52855;BME280;38719;51.418;7.286;2023-01-28T03:20:50;101003.25;;;4.07;62.42
52855;BME280;38719;51.418;7.286;2023-01-28T03:23:41;101003.25;;;4.07;62.35
52855;BME280;38719;51.418;7.286;2023-01-28T03:26:34;100990.03;;;4.04;62.14
52855;BME280;38719;51.418;7.286;2023-01-28T03:29:22;100993.56;;;4.06;62.28
52855;BME280;38719;51.418;7.286;2023-01-28T03:32:11;100991.81;;;3.99;61.33
52855;BME280;38719;51.418;7.286;2023-01-28T03:34:56;100989.19;;;3.97;61.70
52855;BME280;38719;51.418;7.286;2023-01-28T03:37:42;100982.16;;;3.92;62.17
52855;BME280;38719;51.418;7.286;2023-01-28T03:40:11;100988.28;;;3.97;61.95
52855;BME280;38719;51.418;7.286;2023-01-28T03:42:38;100992.69;;;3.92;62.11
52855;BME280;38719;51.418;7.286;2023-01-28T03:45:07;100984.78;;;3.93;62.22
52855;BME280;38719;51.418;7.286;2023-01-28T03:47:36;100999.75;;;3.80;61.20
52855;BME280;38719;51.418;7.286;2023-01-28T03:50:06;100999.75;;;3.85;61.29
52855;BME280;38719;51.418;7.286;2023-01-28T03:52:34;101004.13;;;3.50;61.33
52855;BME280;38719;51.418;7.286;2023-01-28T03:55:01;101005.00;;;3.68;61.84
52855;BME280;38719;51.418;7.286;2023-01-28T03:57:39;101012.91;;;3.71;61.83
52855;BME280;38719;51.418;7.286;2023-01-28T04:00:08;101012.91;;;3.80;61.74
52855;BME280;38719;51.418;7.286;2023-01-28T04:02:38;101014.69;;;3.75;61.09
52855;BME280;38719;51.418;7.286;2023-01-28T04:05:07;101013.78;;;3.79;61.15
52855;BME280;38719;51.418;7.286;2023-01-28T04:07:38;101008.50;;;3.85;62.14
52855;BME280;38719;51.418;7.286;2023-01-28T04:10:07;101004.13;;;3.87;61.30
52855;BME280;38719;51.418;7.286;2023-01-28T04:12:35;101008.53;;;3.90;61.23
52855;BME280;38719;51.418;7.286;2023-01-28T04:15:05;101013.78;;;3.79;61.48
52855;BME280;38719;51.418;7.286;2023-01-28T04:17:44;101012.91;;;3.86;60.87
52855;BME280;38719;51.418;7.286;2023-01-28T04:20:13;101013.78;;;3.87;60.95
52855;BME280;38719;51.418;7.286;2023-01-28T04:22:41;101019.06;;;3.92;60.98
52855;BME280;38719;51.418;7.286;2023-01-28T04:25:09;101028.72;;;3.93;61.07
52855;BME280;38719;51.418;7.286;2023-01-28T04:27:36;101026.09;;;3.86;60.00
52855;BME280;38719;51.418;7.286;2023-01-28T04:30:05;101023.44;;;3.88;60.61
52855;BME280;38719;51.418;7.286;2023-01-28T04:32:32;101029.59;;;3.90;60.29
52855;BME280;38719;51.418;7.286;2023-01-28T04:35:01;101018.16;;;3.77;60.58
52855;BME280;38719;51.418;7.286;2023-01-28T04:37:29;101022.56;;;3.87;60.38
52855;BME280;38719;51.418;7.286;2023-01-28T04:39:56;101022.56;;;3.70;60.14
52855;BME280;38719;51.418;7.286;2023-01-28T04:42:24;101027.84;;;3.78;60.32
52855;BME280;38719;51.418;7.286;2023-01-28T04:44:51;101026.06;;;3.83;60.18
52855;BME280;38719;51.418;7.286;2023-01-28T04:47:19;101028.72;;;3.80;60.80
52855;BME280;38719;51.418;7.286;2023-01-28T04:49:46;101022.56;;;3.87;59.94
52855;BME280;38719;51.418;7.286;2023-01-28T04:52:15;101031.34;;;3.90;60.41
52855;BME280;38719;51.418;7.286;2023-01-28T04:54:43;101038.38;;;3.94;59.92
52855;BME280;38719;51.418;7.286;2023-01-28T04:57:10;101034.88;;;3.90;59.75
52855;BME280;38719;51.418;7.286;2023-01-28T04:59:38;101036.63;;;3.90;59.58
52855;BME280;38719;51.418;7.286;2023-01-28T05:02:05;101030.47;;;3.83;59.78
52855;BME280;38719;51.418;7.286;2023-01-28T05:04:33;101020.81;;;3.80;59.77
52855;BME280;38719;51.418;7.286;2023-01-28T05:07:00;101029.59;;;3.84;59.89
52855;BME280;38719;51.418;7.286;2023-01-28T05:09:29;101033.97;;;3.88;59.53
52855;BME280;38719;51.418;7.286;2023-01-28T05:11:56;101026.94;;;3.82;59.06
52855;BME280;38719;51.418;7.286;2023-01-28T05:14:24;101024.31;;;3.85;59.86
52855;BME280;38719;51.418;7.286;2023-01-28T05:16:52;101015.53;;;3.83;58.97
52855;BME280;38719;51.418;7.286;2023-01-28T05:19:19;101023.44;;;3.80;59.47
52855;BME280;38719;51.418;7.286;2023-01-28T05:21:47;101020.81;;;3.80;58.54
52855;BME280;38719;51.418;7.286;2023-01-28T05:24:14;101021.69;;;3.76;59.95
52855;BME280;38719;51.418;7.286;2023-01-28T05:26:44;101021.69;;;3.76;58.85
52855;BME280;38719;51.418;7.286;2023-01-28T05:29:11;101022.56;;;3.78;58.78
52855;BME280;38719;51.418;7.286;2023-01-28T05:31:39;101020.81;;;3.54;58.08
52855;BME280;38719;51.418;7.286;2023-01-28T05:34:06;101020.81;;;3.62;58.76
52855;BME280;38719;51.418;7.286;2023-01-28T05:36:34;101020.81;;;3.69;58.34
52855;BME280;38719;51.418;7.286;2023-01-28T05:39:02;101024.31;;;3.59;58.62
52855;BME280;38719;51.418;7.286;2023-01-28T05:41:30;101036.59;;;3.52;58.34
52855;BME280;38719;51.418;7.286;2023-01-28T05:43:59;101029.56;;;3.51;57.66
52855;BME280;38719;51.418;7.286;2023-01-28T05:46:26;101039.25;;;3.60;58.22
52855;BME280;38719;51.418;7.286;2023-01-28T05:48:54;101041.00;;;3.61;58.58
52855;BME280;38719;51.418;7.286;2023-01-28T05:51:21;101045.41;;;3.61;58.97
52855;BME280;38719;51.418;7.286;2023-01-28T05:53:49;101048.03;;;3.59;58.16
52855;BME280;38719;51.418;7.286;2023-01-28T05:56:16;101046.25;;;3.61;58.22
52855;BME280;38719;51.418;7.286;2023-01-28T05:58:44;101050.66;;;3.47;58.49
52855;BME280;38719;51.418;7.286;2023-01-28T06:01:13;101050.63;;;3.45;58.51
52855;BME280;38719;51.418;7.286;2023-01-28T06:03:40;101055.03;;;3.43;58.55
52855;BME280;38719;51.418;7.286;2023-01-28T06:06:08;101058.53;;;3.51;59.14
52855;BME280;38719;51.418;7.286;2023-01-28T06:08:35;101063.81;;;3.54;58.62
52855;BME280;38719;51.418;7.286;2023-01-28T06:11:03;101069.09;;;3.53;58.53
52855;BME280;38719;51.418;7.286;2023-01-28T06:13:31;101073.50;;;3.55;58.09
52855;BME280;38719;51.418;7.286;2023-01-28T06:15:59;101062.06;;;3.58;57.87
52855;BME280;38719;51.418;7.286;2023-01-28T06:18:27;101062.06;;;3.55;57.78
52855;BME280;38719;51.418;7.286;2023-01-28T06:20:55;101048.03;;;3.61;57.76
52855;BME280;38719;51.418;7.286;2023-01-28T06:23:22;101046.28;;;3.50;57.55
52855;BME280;38719;51.418;7.286;2023-01-28T06:25:52;101048.91;;;3.50;58.62
52855;BME280;38719;51.418;7.286;2023-01-28T06:28:20;101047.16;;;3.48;58.15
52855;BME280;38719;51.418;7.286;2023-01-28T06:30:48;101049.75;;;3.43;57.90
52855;BME280;38719;51.418;7.286;2023-01-28T06:33:16;101052.41;;;3.52;58.13
52855;BME280;38719;51.418;7.286;2023-01-28T06:35:45;101055.00;;;3.46;57.66
52855;BME280;38719;51.418;7.286;2023-01-28T06:38:13;101053.28;;;3.48;57.98
52855;BME280;38719;51.418;7.286;2023-01-28T06:40:41;101055.00;;;3.40;57.70
52855;BME280;38719;51.418;7.286;2023-01-28T06:43:08;101060.28;;;3.45;58.47
52855;BME280;38719;51.418;7.286;2023-01-28T06:45:36;101062.06;;;3.50;57.82
52855;BME280;38719;51.418;7.286;2023-01-28T06:48:04;101054.13;;;3.49;57.91
52855;BME280;38719;51.418;7.286;2023-01-28T06:50:34;101051.53;;;3.52;57.83
52855;BME280;38719;51.418;7.286;2023-01-28T06:53:03;101056.81;;;3.57;58.10
52855;BME280;38719;51.418;7.286;2023-01-28T06:55:30;101056.78;;;3.55;57.29
52855;BME280;38719;51.418;7.286;2023-01-28T06:57:57;101064.69;;;3.46;57.37
52855;BME280;38719;51.418;7.286;2023-01-28T07:00:25;101063.81;;;3.41;58.47
52855;BME280;38719;51.418;7.286;2023-01-28T07:02:54;101051.50;;;3.35;58.18
52855;BME280;38719;51.418;7.286;2023-01-28T07:05:22;101049.75;;;3.42;57.87
52855;BME280;38719;51.418;7.286;2023-01-28T07:07:50;101043.63;;;3.50;58.44
52855;BME280;38719;51.418;7.286;2023-01-28T07:10:19;101044.50;;;3.52;57.72
52855;BME280;38719;51.418;7.286;2023-01-28T07:12:47;101047.16;;;3.54;57.97
52855;BME280;38719;51.418;7.286;2023-01-28T07:15:14;101050.66;;;3.54;58.10
52855;BME280;38719;51.418;7.286;2023-01-28T07:17:42;101054.13;;;3.43;57.88
52855;BME280;38719;51.418;7.286;2023-01-28T07:20:12;101058.53;;;3.42;57.28
52855;BME280;38719;51.418;7.286;2023-01-28T07:22:41;101056.72;;;3.30;57.91
52855;BME280;38719;51.418;7.286;2023-01-28T07:25:10;101059.41;;;3.41;57.99
52855;BME280;38719;51.418;7.286;2023-01-28T07:27:45;101067.31;;;3.38;57.54
52855;BME280;38719;51.418;7.286;2023-01-28T07:30:13;101058.53;;;3.42;57.75
52855;BME280;38719;51.418;7.286;2023-01-28T07:32:42;101054.16;;;3.44;57.01
52855;BME280;38719;51.418;7.286;2023-01-28T07:35:10;101065.56;;;3.43;57.25
52855;BME280;38719;51.418;7.286;2023-01-28T07:37:38;101061.16;;;3.41;58.18
52855;BME280;38719;51.418;7.286;2023-01-28T07:40:07;101059.41;;;3.41;57.43
52855;BME280;38719;51.418;7.286;2023-01-28T07:42:35;101051.50;;;3.47;58.10
52855;BME280;38719;51.418;7.286;2023-01-28T07:45:04;101051.50;;;3.47;58.62
52855;BME280;38719;51.418;7.286;2023-01-28T07:47:32;101062.03;;;3.43;57.08
52855;BME280;38719;51.418;7.286;2023-01-28T07:50:00;101072.59;;;3.46;58.02
52855;BME280;38719;51.418;7.286;2023-01-28T07:52:27;101063.81;;;3.48;58.20
52855;BME280;38719;51.418;7.286;2023-01-28T07:54:55;101068.22;;;3.49;57.24
52855;BME280;38719;51.418;7.286;2023-01-28T07:57:22;101071.72;;;3.48;57.70
52855;BME280;38719;51.418;7.286;2023-01-28T07:59:50;101070.81;;;3.45;58.39
52855;BME280;38719;51.418;7.286;2023-01-28T08:02:18;101073.44;;;3.46;57.62
52855;BME280;38719;51.418;7.286;2023-01-28T08:04:46;101078.75;;;3.51;57.32
52855;BME280;38719;51.418;7.286;2023-01-28T08:07:14;101077.81;;;3.36;56.31
52855;BME280;38719;51.418;7.286;2023-01-28T08:09:42;101078.75;;;3.48;56.86
52855;BME280;38719;51.418;7.286;2023-01-28T08:12:10;101092.78;;;3.51;56.58
52855;BME280;38719;51.418;7.286;2023-01-28T08:14:37;101094.56;;;3.48;56.49
52855;BME280;38719;51.418;7.286;2023-01-28T08:17:05;101103.31;;;3.51;57.10
52855;BME280;38719;51.418;7.286;2023-01-28T08:19:33;101098.94;;;3.55;57.63
52855;BME280;38719;51.418;7.286;2023-01-28T08:22:01;101100.69;;;3.56;56.80
52855;BME280;38719;51.418;7.286;2023-01-28T08:24:28;101104.22;;;3.57;56.67
52855;BME280;38719;51.418;7.286;2023-01-28T08:26:56;101109.50;;;3.66;56.89
52855;BME280;38719;51.418;7.286;2023-01-28T08:29:23;101117.41;;;3.67;56.97
52855;BME280;38719;51.418;7.286;2023-01-28T08:31:51;101114.75;;;3.66;56.18
52855;BME280;38719;51.418;7.286;2023-01-28T08:34:19;101113.88;;;3.64;55.73
52855;BME280;38719;51.418;7.286;2023-01-28T08:36:48;101111.25;;;3.61;56.80
52855;BME280;38719;51.418;7.286;2023-01-28T08:39:15;101122.69;;;3.63;56.46
52855;BME280;38719;51.418;7.286;2023-01-28T08:41:43;101131.47;;;3.71;56.05
52855;BME280;38719;51.418;7.286;2023-01-28T08:44:10;101134.97;;;3.61;55.77
52855;BME280;38719;51.418;7.286;2023-01-28T08:46:38;101134.94;;;3.64;56.21
52855;BME280;38719;51.418;7.286;2023-01-28T08:49:05;101140.25;;;3.67;56.65
52855;BME280;38719;51.418;7.286;2023-01-28T08:51:33;101141.97;;;3.55;56.49
52855;BME280;38719;51.418;7.286;2023-01-28T08:54:02;101155.16;;;3.62;55.20
52855;BME280;38719;51.418;7.286;2023-01-28T08:56:29;101154.28;;;3.63;55.36
52855;BME280;38719;51.418;7.286;2023-01-28T08:58:57;101167.44;;;3.58;56.10
52855;BME280;38719;51.418;7.286;2023-01-28T09:01:24;101164.81;;;3.57;56.06
52855;BME280;38719;51.418;7.286;2023-01-28T09:03:54;101176.22;;;3.57;55.29
52855;BME280;38719;51.418;7.286;2023-01-28T09:06:22;101191.13;;;3.50;55.29
52855;BME280;38719;51.418;7.286;2023-01-28T09:08:49;101190.28;;;3.61;56.14
52855;BME280;38719;51.418;7.286;2023-01-28T09:11:18;101185.88;;;3.61;55.97
52855;BME280;38719;51.418;7.286;2023-01-28T09:13:46;101192.03;;;3.60;55.50
52855;BME280;38719;51.418;7.286;2023-01-28T09:16:13;101192.88;;;3.58;55.24
52855;BME280;38719;51.418;7.286;2023-01-28T09:18:41;101199.91;;;3.51;55.26
52855;BME280;38719;51.418;7.286;2023-01-28T09:21:08;101197.25;;;3.49;55.84
52855;BME280;38719;51.418;7.286;2023-01-28T09:23:37;101201.66;;;3.50;56.71
52855;BME280;38719;51.418;7.286;2023-01-28T09:26:05;101190.22;;;3.47;56.27
52855;BME280;38719;51.418;7.286;2023-01-28T09:28:35;101195.50;;;3.48;56.37
52855;BME280;38719;51.418;7.286;2023-01-28T09:31:05;101192.91;;;3.61;56.35
52855;BME280;38719;51.418;7.286;2023-01-28T09:33:34;101192.03;;;3.63;55.90
52855;BME280;38719;51.418;7.286;2023-01-28T09:36:03;101192.03;;;3.63;56.38
52855;BME280;38719;51.418;7.286;2023-01-28T09:38:31;101185.03;;;3.70;56.21
52855;BME280;38719;51.418;7.286;2023-01-28T09:41:01;101193.81;;;3.70;56.36
52855;BME280;38719;51.418;7.286;2023-01-28T09:43:47;101204.34;;;3.63;54.80
52855;BME280;38719;51.418;7.286;2023-01-28T09:46:17;101207.81;;;3.54;55.58
52855;BME280;38719;51.418;7.286;2023-01-28T09:48:47;101199.97;;;3.69;55.79
52855;BME280;38719;51.418;7.286;2023-01-28T09:51:25;101208.56;;;3.22;55.09
52855;BME280;38719;51.418;7.286;2023-01-28T09:53:58;101211.25;;;3.39;55.98
52855;BME280;38719;51.418;7.286;2023-01-28T09:56:30;101216.56;;;3.50;55.49
52855;BME280;38719;51.418;7.286;2023-01-28T09:59:10;101219.19;;;3.42;55.22
52855;BME280;38719;51.418;7.286;2023-01-28T10:01:42;101214.81;;;3.55;55.48
52855;BME280;38719;51.418;7.286;2023-01-28T10:04:21;101209.59;;;3.58;54.54
52855;BME280;38719;51.418;7.286;2023-01-28T10:06:57;101195.53;;;3.62;54.66
52855;BME280;38719;51.418;7.286;2023-01-28T10:09:34;101214.84;;;3.61;54.93
52855;BME280;38719;51.418;7.286;2023-01-28T10:12:15;101206.06;;;3.53;55.25
52855;BME280;38719;51.418;7.286;2023-01-28T10:15:07;101201.59;;;3.38;54.71
52855;BME280;38719;51.418;7.286;2023-01-28T10:17:41;101209.47;;;3.36;54.73
52855;BME280;38719;51.418;7.286;2023-01-28T10:20:18;101206.00;;;3.41;55.76
52855;BME280;38719;51.418;7.286;2023-01-28T10:22:50;101212.19;;;3.53;56.40
52855;BME280;38719;51.418;7.286;2023-01-28T10:25:21;101203.41;;;3.48;55.42
52855;BME280;38719;51.418;7.286;2023-01-28T10:27:50;101200.75;;;3.50;54.96
52855;BME280;38719;51.418;7.286;2023-01-28T10:30:22;101188.53;;;3.64;55.55
52855;BME280;38719;51.418;7.286;2023-01-28T10:32:52;101172.72;;;3.67;54.63
52855;BME280;38719;51.418;7.286;2023-01-28T10:35:20;101171.88;;;3.75;54.78
52855;BME280;38719;51.418;7.286;2023-01-28T10:37:51;101178.03;;;3.86;54.83
52855;BME280;38719;51.418;7.286;2023-01-28T10:40:23;101183.31;;;3.83;54.79
52855;BME280;38719;51.418;7.286;2023-01-28T10:42:50;101175.41;;;3.84;54.74
52855;BME280;38719;51.418;7.286;2023-01-28T10:45:22;101174.53;;;3.88;54.61
52855;BME280;38719;51.418;7.286;2023-01-28T10:47:53;101178.94;;;3.96;53.99
52855;BME280;38719;51.418;7.286;2023-01-28T10:50:24;101178.97;;;4.05;53.87
52855;BME280;38719;51.418;7.286;2023-01-28T10:52:53;101184.19;;;3.80;54.28
52855;BME280;38719;51.418;7.286;2023-01-28T10:55:21;101200.03;;;4.02;54.27
52855;BME280;38719;51.418;7.286;2023-01-28T10:57:51;101196.53;;;3.97;53.96
52855;BME280;38719;51.418;7.286;2023-01-28T11:00:25;101210.56;;;3.90;53.46
52855;BME280;38719;51.418;7.286;2023-01-28T11:02:56;101206.09;;;3.62;54.67
52855;BME280;38719;51.418;7.286;2023-01-28T11:05:25;101204.38;;;3.70;54.32
52855;BME280;38719;51.418;7.286;2023-01-28T11:08:04;101198.25;;;3.78;55.13
52855;BME280;38719;51.418;7.286;2023-01-28T11:10:34;101206.97;;;3.63;55.02
52855;BME280;38719;51.418;7.286;2023-01-28T11:13:04;101207.88;;;3.74;54.34
52855;BME280;38719;51.418;7.286;2023-01-28T11:15:33;101219.31;;;3.79;53.95
52855;BME280;38719;51.418;7.286;2023-01-28T11:18:02;101227.19;;;3.70;53.91
52855;BME280;38719;51.418;7.286;2023-01-28T11:20:36;101230.66;;;3.61;54.31
52855;BME280;38719;51.418;7.286;2023-01-28T11:23:04;101226.28;;;3.65;54.77
52855;BME280;38719;51.418;7.286;2023-01-28T11:25:33;101232.47;;;3.76;54.15
52855;BME280;38719;51.418;7.286;2023-01-28T11:28:07;101226.38;;;3.85;54.32
52855;BME280;38719;51.418;7.286;2023-01-28T11:30:49;101233.28;;;3.61;54.75
52855;BME280;38719;51.418;7.286;2023-01-28T11:33:20;101228.97;;;3.77;54.26
52855;BME280;38719;51.418;7.286;2023-01-28T11:35:53;101223.75;;;3.85;54.42
52855;BME280;38719;51.418;7.286;2023-01-28T11:38:22;101214.94;;;3.86;53.91
52855;BME280;38719;51.418;7.286;2023-01-28T11:40:51;101198.25;;;3.95;53.35
52855;BME280;38719;51.418;7.286;2023-01-28T11:43:21;101199.16;;;4.01;54.41
52855;BME280;38719;51.418;7.286;2023-01-28T11:45:57;101207.09;;;4.08;54.39
52855;BME280;38719;51.418;7.286;2023-01-28T11:48:36;101207.97;;;4.14;54.23
52855;BME280;38719;51.418;7.286;2023-01-28T11:51:18;101200.94;;;4.10;54.39
52855;BME280;38719;51.418;7.286;2023-01-28T11:53:59;101186.00;;;4.12;54.44
52855;BME280;38719;51.418;7.286;2023-01-28T11:56:40;101186.88;;;4.11;54.14
52855;BME280;38719;51.418;7.286;2023-01-28T11:59:24;101186.88;;;4.14;53.59
52855;BME280;38719;51.418;7.286;2023-01-28T12:02:07;101178.09;;;4.17;53.73
52855;BME280;38719;51.418;7.286;2023-01-28T12:04:49;101185.13;;;4.16;53.78
52855;BME280;38719;51.418;7.286;2023-01-28T12:07:33;101187.78;;;4.16;53.88
52855;BME280;38719;51.418;7.286;2023-01-28T12:10:08;101188.66;;;4.14;54.23
52855;BME280;38719;51.418;7.286;2023-01-28T12:12:55;101191.28;;;4.15;54.42
52855;BME280;38719;51.418;7.286;2023-01-28T12:15:44;101191.28;;;4.09;53.79
52855;BME280;38719;51.418;7.286;2023-01-28T12:18:27;101183.38;;;4.12;54.53
52855;BME280;38719;51.418;7.286;2023-01-28T12:21:03;101178.97;;;4.19;54.28
52855;BME280;38719;51.418;7.286;2023-01-28T12:23:42;101165.81;;;4.17;53.63
52855;BME280;38719;51.418;7.286;2023-01-28T12:26:15;101151.72;;;3.95;53.70
52855;BME280;38719;51.418;7.286;2023-01-28T12:28:58;101149.09;;;4.00;54.15
52855;BME280;38719;51.418;7.286;2023-01-28T12:31:37;101135.88;;;3.89;53.88
52855;BME280;38719;51.418;7.286;2023-01-28T12:34:41;101130.59;;;3.86;53.62
52855;BME280;38719;51.418;7.286;2023-01-28T12:37:17;101131.50;;;4.00;54.78
52855;BME280;38719;51.418;7.286;2023-01-28T12:39:59;101128.00;;;4.12;54.75
52855;BME280;38719;51.418;7.286;2023-01-28T12:42:32;101139.44;;;4.22;53.79
52855;BME280;38719;51.418;7.286;2023-01-28T12:45:12;101135.91;;;4.17;53.48
52855;BME280;38719;51.418;7.286;2023-01-28T12:47:46;101125.38;;;4.20;53.51
52855;BME280;38719;51.418;7.286;2023-01-28T12:50:20;101112.16;;;4.29;53.49
52855;BME280;38719;51.418;7.286;2023-01-28T12:52:53;101100.75;;;4.36;53.83
52855;BME280;38719;51.418;7.286;2023-01-28T12:55:34;101088.41;;;4.46;53.10
52855;BME280;38719;51.418;7.286;2023-01-28T12:58:04;101065.59;;;4.34;53.26
52855;BME280;38719;51.418;7.286;2023-01-28T13:00:36;101063.84;;;4.15;53.78
52855;BME280;38719;51.418;7.286;2023-01-28T13:03:12;101052.44;;;3.80;54.66
52855;BME280;38719;51.418;7.286;2023-01-28T13:05:47;101047.16;;;3.74;55.20
52855;BME280;38719;51.418;7.286;2023-01-28T13:08:19;101033.13;;;3.89;53.94
52855;BME280;38719;51.418;7.286;2023-01-28T13:10:49;101033.13;;;4.00;54.32
52855;BME280;38719;51.418;7.286;2023-01-28T13:13:23;101045.38;;;4.27;54.97
52855;BME280;38719;51.418;7.286;2023-01-28T13:15:52;101067.34;;;4.39;53.46
52855;BME280;38719;51.418;7.286;2023-01-28T13:18:32;101066.47;;;4.35;53.18
52855;BME280;38719;51.418;7.286;2023-01-28T13:21:02;101083.13;;;4.51;53.82
52855;BME280;38719;51.418;7.286;2023-01-28T13:23:39;101088.44;;;4.39;52.38